createdAt,value
2019-02-15T00:02:10.563Z,15.97
2019-02-15T00:04:48.063Z,12.80
2019-02-15T00:07:25.582Z,11.17
2019-02-15T00:10:03.072Z,12.87
2019-02-15T00:12:43.910Z,13.10
2019-02-15T00:15:21.414Z,13.87
2019-02-15T00:18:20.731Z,13.20
2019-02-15T00:21:02.785Z,11.63
2019-02-15T00:23:46.747Z,13.67
2019-02-15T00:26:24.235Z,14.73
2019-02-15T00:29:01.780Z,12.40
2019-02-15T00:31:39.280Z,14.13
2019-02-15T00:34:16.903Z,14.03
2019-02-15T00:36:54.405Z,12.83
2019-02-15T00:39:31.947Z,13.43
2019-02-15T00:42:09.612Z,14.70
2019-02-15T00:44:47.134Z,14.60
2019-02-15T00:47:33.351Z,14.63
2019-02-15T00:50:26.216Z,15.23
2019-02-15T00:53:29.177Z,12.97
2019-02-15T00:56:25.310Z,14.53
2019-02-15T00:59:17.564Z,15.13
2019-02-15T01:02:13.795Z,10.53
2019-02-15T01:05:26.248Z,11.43
2019-02-15T01:08:22.448Z,12.73
2019-02-15T01:11:21.952Z,15.97
2019-02-15T01:14:08.525Z,11.93
2019-02-15T01:16:46.023Z,13.57
2019-02-15T01:19:23.556Z,10.77
2019-02-15T01:22:07.563Z,11.77
2019-02-15T01:24:45.080Z,11.10
2019-02-15T01:27:30.528Z,11.93
2019-02-15T01:30:29.916Z,11.63
2019-02-15T01:33:37.542Z,10.03
2019-02-15T01:36:21.551Z,13.97
2019-02-15T01:39:09.122Z,14.77
2019-02-15T01:42:20.466Z,12.07
2019-02-15T01:45:02.715Z,15.43
2019-02-15T01:47:43.980Z,11.93
2019-02-15T01:50:21.489Z,11.43
2019-02-15T01:53:02.573Z,11.83
2019-02-15T01:55:40.078Z,13.77
2019-02-15T01:58:17.604Z,10.33
2019-02-15T02:00:55.111Z,10.23
2019-02-15T02:03:32.762Z,9.87
2019-02-15T02:06:10.258Z,11.00
2019-02-15T02:08:47.805Z,13.00
2019-02-15T02:11:25.302Z,11.60
2019-02-15T02:14:03.698Z,15.47
2019-02-15T02:16:41.211Z,11.50
2019-02-15T02:19:18.719Z,11.40
2019-02-15T02:21:59.563Z,12.43
2019-02-15T02:24:37.062Z,11.83
2019-02-15T02:27:14.567Z,12.80
2019-02-15T02:29:52.091Z,10.50
2019-02-15T02:32:30.663Z,12.77
2019-02-15T02:35:08.833Z,15.70
2019-02-15T02:37:46.347Z,11.40
2019-02-15T02:40:23.907Z,12.87
2019-02-15T02:43:01.569Z,12.30
2019-02-15T02:45:39.089Z,12.70
2019-02-15T02:48:16.597Z,10.57
2019-02-15T02:50:54.073Z,11.90
2019-02-15T02:53:34.808Z,17.10
2019-02-15T02:56:12.300Z,12.43
2019-02-15T02:58:49.856Z,11.20
2019-02-15T03:01:27.469Z,10.83
2019-02-15T03:04:04.987Z,12.90
2019-02-15T03:06:42.486Z,11.40
2019-02-15T03:09:19.991Z,11.37
2019-02-15T03:12:00.804Z,11.90
2019-02-15T03:14:38.330Z,12.00
2019-02-15T03:17:15.827Z,11.63
2019-02-15T03:19:53.369Z,13.43
2019-02-15T03:22:30.963Z,12.23
2019-02-15T03:25:08.505Z,12.97
2019-02-15T03:27:46.007Z,10.43
2019-02-15T03:30:23.665Z,12.87
2019-02-15T03:33:01.152Z,11.20
2019-02-15T03:35:38.677Z,11.87
2019-02-15T03:38:25.007Z,14.23
2019-02-15T03:41:04.574Z,9.53
2019-02-15T03:43:42.088Z,10.70
2019-02-15T03:46:19.591Z,10.23
2019-02-15T03:48:57.131Z,12.33
2019-02-15T03:51:54.178Z,12.07
2019-02-15T03:54:31.689Z,9.63
2019-02-15T03:57:09.183Z,14.37
2019-02-15T03:59:46.730Z,11.07
2019-02-15T04:02:27.418Z,10.93
2019-02-15T04:05:04.939Z,11.20
2019-02-15T04:07:42.454Z,11.10
2019-02-15T04:10:19.996Z,12.07
2019-02-15T04:12:57.602Z,11.03
2019-02-15T04:15:35.128Z,16.13
2019-02-15T04:18:12.626Z,13.30
2019-02-15T04:20:50.151Z,12.17
2019-02-15T04:23:27.646Z,10.63
2019-02-15T04:26:05.179Z,9.73
2019-02-15T04:28:42.678Z,10.73
2019-02-15T04:31:29.702Z,12.47
2019-02-15T04:34:13.875Z,10.57
2019-02-15T04:36:51.437Z,12.80
2019-02-15T04:39:29.000Z,11.33
2019-02-15T04:42:06.611Z,10.63
2019-02-15T04:44:44.156Z,11.20
2019-02-15T04:47:21.679Z,13.87
2019-02-15T04:49:59.223Z,12.33
2019-02-15T04:52:43.753Z,11.83
2019-02-15T04:55:21.278Z,11.47
2019-02-15T04:57:58.789Z,10.43
2019-02-15T05:00:36.302Z,9.73
2019-02-15T05:03:13.911Z,10.43
2019-02-15T05:05:51.429Z,9.30
2019-02-15T05:08:28.934Z,8.77
2019-02-15T05:11:22.999Z,8.37
2019-02-15T05:14:00.522Z,9.67
2019-02-15T05:16:38.053Z,12.33
2019-02-15T05:19:15.571Z,12.20
2019-02-15T05:22:21.865Z,12.03
2019-02-15T05:24:59.406Z,10.00
2019-02-15T05:27:36.867Z,9.03
2019-02-15T05:30:14.381Z,9.07
2019-02-15T05:32:51.981Z,12.20
2019-02-15T05:35:29.511Z,11.93
2019-02-15T05:38:07.011Z,10.60
2019-02-15T05:40:50.895Z,11.07
2019-02-15T05:43:28.394Z,12.30
2019-02-15T05:46:05.931Z,10.83
2019-02-15T05:48:43.449Z,9.83
2019-02-15T05:51:31.040Z,9.70
2019-02-15T05:54:08.550Z,9.57
2019-02-15T05:56:46.101Z,10.93
2019-02-15T05:59:23.664Z,9.60
2019-02-15T06:02:18.199Z,11.43
2019-02-15T06:04:58.544Z,11.67
2019-02-15T06:07:33.470Z,9.40
2019-02-15T06:10:11.267Z,10.90
2019-02-15T06:12:48.877Z,10.67
2019-02-15T06:15:37.177Z,9.63
2019-02-15T06:18:14.668Z,12.70
2019-02-15T06:20:52.382Z,10.90
2019-02-15T06:23:29.913Z,9.47
2019-02-15T06:26:07.443Z,11.77
2019-02-15T06:28:44.945Z,10.23
2019-02-15T06:31:22.620Z,15.57
2019-02-15T06:34:00.115Z,15.30
2019-02-15T06:36:38.171Z,18.87
2019-02-15T06:39:15.729Z,17.83
2019-02-15T06:41:53.386Z,22.13
2019-02-15T06:44:31.105Z,34.73
2019-02-15T06:47:08.631Z,22.63
2019-02-15T06:49:46.134Z,18.33
2019-02-15T06:52:43.620Z,12.67
2019-02-15T06:55:21.160Z,11.87
2019-02-15T06:57:58.670Z,17.47
2019-02-15T07:00:52.575Z,25.67
2019-02-15T07:03:57.359Z,63.00
2019-02-15T07:06:34.898Z,35.57
2019-02-15T07:09:12.442Z,26.43
2019-02-15T07:11:50.098Z,15.60
2019-02-15T07:14:27.618Z,13.13
2019-02-15T07:17:06.451Z,11.00
2019-02-15T07:19:43.814Z,11.37
2019-02-15T07:22:20.251Z,9.40
2019-02-15T07:24:57.768Z,9.00
2019-02-15T07:27:35.337Z,10.10
2019-02-15T07:30:15.583Z,9.80
2019-02-15T07:32:51.931Z,11.40
2019-02-15T07:35:29.460Z,9.03
2019-02-15T07:38:06.967Z,8.57
2019-02-15T07:40:48.056Z,12.40
2019-02-15T07:43:25.348Z,14.30
2019-02-15T07:46:02.866Z,11.17
2019-02-15T07:48:40.363Z,10.83
2019-02-15T07:51:18.040Z,11.70
2019-02-15T07:53:55.508Z,11.27
2019-02-15T07:56:33.042Z,12.13
2019-02-15T07:59:10.559Z,11.27
2019-02-15T08:02:01.940Z,13.57
2019-02-15T08:04:35.986Z,12.13
2019-02-15T08:07:22.102Z,13.47
2019-02-15T08:09:59.608Z,11.00
2019-02-15T08:12:37.144Z,10.13
2019-02-15T08:15:14.656Z,8.77
2019-02-15T08:17:52.172Z,10.33
2019-02-15T08:20:35.899Z,14.97
2019-02-15T08:23:13.675Z,14.23
2019-02-15T08:25:51.172Z,13.37
2019-02-15T08:28:28.676Z,15.93
2019-02-15T08:31:09.446Z,14.77
2019-02-15T08:33:46.946Z,15.90
2019-02-15T08:36:24.479Z,11.10
2019-02-15T08:39:01.987Z,12.87
2019-02-15T08:41:39.640Z,12.03
2019-02-15T08:44:17.151Z,11.30
2019-02-15T08:46:54.686Z,12.20
2019-02-15T08:49:32.193Z,10.27
2019-02-15T08:52:13.364Z,12.10
2019-02-15T08:54:50.891Z,11.53
2019-02-15T08:57:28.432Z,11.03
2019-02-15T09:00:10.592Z,12.73
2019-02-15T09:02:48.187Z,12.10
2019-02-15T09:05:25.760Z,11.53
2019-02-15T09:08:03.327Z,12.93
2019-02-15T09:10:44.578Z,11.60
2019-02-15T09:13:22.134Z,14.43
2019-02-15T09:15:59.635Z,13.20
2019-02-15T09:18:37.162Z,12.60
2019-02-15T09:21:14.775Z,11.30
2019-02-15T09:23:52.279Z,13.97
2019-02-15T09:26:29.906Z,12.27
2019-02-15T09:29:10.389Z,19.47
2019-02-15T09:31:48.037Z,16.30
2019-02-15T09:34:25.555Z,11.97
2019-02-15T09:37:03.101Z,12.17
2019-02-15T09:40:01.630Z,14.47
2019-02-15T09:42:39.207Z,11.43
2019-02-15T09:45:16.702Z,12.40
2019-02-15T09:47:54.251Z,12.93
2019-02-15T09:50:35.452Z,12.67
2019-02-15T09:53:12.987Z,14.30
2019-02-15T09:55:50.496Z,13.67
2019-02-15T09:58:28.027Z,14.63
2019-02-15T10:01:12.243Z,12.37
2019-02-15T10:03:49.902Z,12.30
2019-02-15T10:06:27.625Z,13.47
2019-02-15T10:09:05.667Z,16.77
2019-02-15T10:11:52.903Z,13.70
2019-02-15T10:14:30.573Z,15.03
2019-02-15T10:17:08.429Z,13.37
2019-02-15T10:19:46.050Z,15.23
2019-02-15T10:22:23.599Z,17.57
2019-02-15T10:25:01.124Z,17.17
2019-02-15T10:27:38.658Z,13.93
2019-02-15T10:30:19.415Z,13.57
2019-02-15T10:32:56.952Z,13.23
2019-02-15T10:35:34.503Z,13.33
2019-02-15T10:38:12.049Z,15.13
2019-02-15T10:40:53.212Z,11.77
2019-02-15T10:43:30.773Z,13.33
2019-02-15T10:46:08.307Z,16.27
2019-02-15T10:48:45.928Z,15.37
2019-02-15T10:52:03.853Z,15.33
2019-02-15T10:54:41.449Z,13.57
2019-02-15T10:57:19.026Z,13.83
2019-02-15T11:00:22.355Z,14.57
2019-02-15T11:03:00.040Z,11.63
2019-02-15T11:05:37.551Z,11.03
2019-02-15T11:08:15.131Z,13.20
2019-02-15T11:15:10.774Z,12.83
2019-02-15T11:17:48.361Z,14.57
2019-02-15T11:20:25.985Z,14.77
2019-02-15T11:23:03.564Z,13.30
2019-02-15T11:25:41.157Z,14.43
2019-02-15T11:28:18.861Z,14.90
2019-02-15T11:31:03.215Z,15.77
2019-02-15T11:33:40.835Z,18.40
2019-02-15T11:36:18.469Z,15.53
2019-02-15T11:38:56.076Z,19.30
2019-02-15T11:41:33.795Z,18.47
2019-02-15T11:44:11.409Z,16.90
2019-02-15T11:46:56.508Z,17.97
2019-02-15T11:49:27.717Z,16.50
2019-02-15T11:52:05.285Z,17.93
2019-02-15T11:54:42.933Z,21.80
2019-02-15T11:57:20.654Z,20.07
2019-02-15T12:00:13.607Z,15.40
2019-02-15T12:02:42.350Z,15.30
2019-02-15T12:05:19.990Z,14.40
2019-02-15T12:07:57.586Z,11.50
2019-02-15T12:10:36.276Z,13.67
2019-02-15T12:13:13.924Z,13.43
2019-02-15T12:15:51.597Z,15.27
2019-02-15T12:18:29.310Z,16.67
2019-02-15T12:21:25.634Z,14.47
2019-02-15T12:24:03.343Z,18.07
2019-02-15T12:26:41.041Z,13.63
2019-02-15T12:29:22.202Z,16.80
2019-02-15T12:32:00.428Z,11.57
2019-02-15T12:34:38.167Z,17.10
2019-02-15T12:37:15.963Z,12.63
2019-02-15T12:40:01.547Z,15.80
2019-02-15T12:42:41.087Z,15.33
2019-02-15T12:45:18.745Z,12.33
2019-02-15T12:47:56.433Z,13.10
2019-02-15T12:50:38.216Z,11.73
2019-02-15T12:53:15.766Z,15.23
2019-02-15T12:55:53.270Z,12.07
2019-02-15T12:58:30.907Z,14.47
2019-02-15T13:01:18.128Z,13.47
2019-02-15T13:03:55.648Z,9.30
2019-02-15T13:06:33.145Z,11.57
2019-02-15T13:09:29.378Z,12.30
2019-02-15T13:12:06.885Z,11.47
2019-02-15T13:14:44.414Z,10.77
2019-02-15T13:17:24.691Z,11.67
2019-02-15T13:20:05.882Z,9.17
2019-02-15T13:22:43.366Z,8.37
2019-02-15T13:25:20.939Z,11.17
2019-02-15T13:27:58.376Z,8.93
2019-02-15T13:30:52.755Z,8.17
2019-02-15T13:33:30.295Z,9.17
2019-02-15T13:36:07.816Z,7.60
2019-02-15T13:38:45.390Z,9.30
2019-02-15T13:41:24.700Z,8.70
2019-02-15T13:44:00.427Z,5.87
2019-02-15T13:46:37.935Z,4.60
2019-02-15T13:49:15.583Z,4.77
2019-02-15T13:51:53.100Z,4.50
2019-02-15T13:54:30.633Z,5.00
2019-02-15T13:57:08.160Z,3.77
2019-02-15T13:59:49.045Z,5.77
2019-02-15T14:02:26.595Z,5.37
2019-02-15T14:05:04.222Z,5.27
2019-02-15T14:07:41.764Z,3.05
2019-02-15T14:10:22.658Z,3.67
2019-02-15T14:13:00.305Z,2.87
2019-02-15T14:15:37.940Z,9.10
2019-02-15T14:18:15.459Z,8.73
2019-02-15T14:20:53.046Z,2.87
2019-02-15T14:23:30.578Z,3.20
2019-02-15T14:26:08.116Z,3.00
2019-02-15T14:28:45.773Z,2.52
2019-02-15T14:31:23.353Z,3.33
2019-02-15T14:34:00.995Z,3.70
2019-02-15T14:36:38.563Z,2.50
2019-02-15T14:39:23.465Z,4.70
2019-02-15T14:42:01.031Z,3.73
2019-02-15T14:44:38.669Z,4.87
2019-02-15T14:47:16.219Z,3.53
2019-02-15T14:49:53.857Z,5.77
2019-02-15T14:52:31.397Z,5.70
2019-02-15T14:55:09.042Z,2.53
2019-02-15T14:57:46.671Z,3.57
2019-02-15T15:00:37.320Z,3.27
2019-02-15T15:03:14.921Z,2.77
2019-02-15T15:05:52.567Z,3.43
2019-02-15T15:08:30.813Z,2.80
2019-02-15T15:11:07.860Z,4.47
2019-02-15T15:13:45.478Z,4.50
2019-02-15T15:16:23.154Z,3.07
2019-02-15T15:19:18.607Z,5.58
2019-02-15T15:21:56.199Z,4.33
2019-02-15T15:24:33.923Z,5.90
2019-02-15T15:27:11.627Z,6.42
2019-02-15T15:29:52.631Z,5.37
2019-02-15T15:32:30.290Z,5.40
2019-02-15T15:35:07.976Z,4.27
2019-02-15T15:37:45.586Z,6.43
2019-02-15T15:40:43.610Z,10.33
2019-02-15T15:43:21.221Z,7.67
2019-02-15T15:45:58.880Z,6.93
2019-02-15T15:48:36.611Z,7.20
2019-02-15T15:51:14.240Z,6.40
2019-02-15T15:53:51.886Z,9.33
2019-02-15T15:56:29.516Z,6.10
2019-02-15T15:59:35.734Z,6.77
2019-02-15T16:02:13.442Z,6.83
2019-02-15T16:04:50.994Z,7.43
2019-02-15T16:07:28.525Z,4.57
2019-02-15T16:10:06.842Z,7.43
2019-02-15T16:12:44.444Z,6.10
2019-02-15T16:15:22.059Z,5.43
2019-02-15T16:17:59.698Z,7.23
2019-02-15T16:20:37.823Z,9.53
2019-02-15T16:23:15.441Z,9.60
2019-02-15T16:25:53.130Z,10.77
2019-02-15T16:28:59.293Z,9.93
2019-02-15T16:31:36.917Z,6.63
2019-02-15T16:34:14.484Z,5.40
2019-02-15T16:36:52.007Z,10.57
2019-02-15T16:39:46.645Z,8.77
2019-02-15T16:42:24.151Z,6.30
2019-02-15T16:45:01.729Z,8.57
2019-02-15T16:47:54.893Z,8.77
2019-02-15T16:50:32.741Z,6.53
2019-02-15T16:53:24.393Z,8.10
2019-02-15T16:56:02.018Z,5.23
2019-02-15T16:58:47.333Z,8.57
2019-02-15T17:01:25.003Z,5.53
2019-02-15T17:04:02.823Z,5.87
2019-02-15T17:06:40.647Z,6.33
2019-02-15T17:09:27.601Z,7.20
2019-02-15T17:12:05.260Z,7.23
2019-02-15T17:14:42.884Z,5.73
2019-02-15T17:17:20.636Z,8.77
2019-02-15T17:19:59.371Z,7.27
2019-02-15T17:22:38.948Z,5.40
2019-02-15T17:25:16.517Z,6.77
2019-02-15T17:27:57.241Z,6.37
2019-02-15T17:30:35.446Z,6.43
2019-02-15T17:33:13.147Z,4.97
2019-02-15T17:35:50.778Z,6.03
2019-02-15T17:38:28.405Z,11.03
2019-02-15T17:41:06.130Z,8.70
2019-02-15T17:43:43.789Z,7.93
2019-02-15T17:46:21.457Z,8.80
2019-02-15T17:49:00.957Z,11.00
2019-02-15T17:51:37.068Z,9.90
2019-02-15T17:54:14.624Z,8.97
2019-02-15T17:56:52.193Z,9.30
2019-02-15T17:59:35.194Z,7.67
2019-02-15T18:02:12.923Z,12.30
2019-02-15T18:04:50.462Z,9.43
2019-02-15T18:07:28.029Z,9.67
2019-02-15T18:10:07.639Z,10.67
2019-02-15T18:12:45.264Z,10.50
2019-02-15T18:15:22.828Z,13.23
2019-02-15T18:18:15.843Z,10.27
2019-02-15T18:20:53.377Z,11.17
2019-02-15T18:23:30.904Z,12.97
2019-02-15T18:26:08.435Z,13.37
2019-02-15T18:28:48.031Z,11.77
2019-02-15T18:31:25.671Z,9.93
2019-02-15T18:34:03.256Z,13.17
2019-02-15T18:36:40.834Z,17.97
2019-02-15T18:39:18.579Z,33.80
2019-02-15T18:41:56.297Z,38.87
2019-02-15T18:44:33.964Z,55.03
2019-02-15T18:47:11.540Z,44.83
2019-02-15T18:49:49.280Z,31.47
2019-02-15T18:52:26.917Z,35.10
2019-02-15T18:55:04.659Z,38.23
2019-02-15T18:57:45.758Z,40.67
2019-02-15T19:00:24.659Z,35.67
2019-02-15T19:03:02.615Z,31.93
2019-02-15T19:05:40.320Z,30.57
2019-02-15T19:08:50.578Z,28.77
2019-02-15T19:11:28.301Z,25.07
2019-02-15T19:14:05.963Z,24.87
2019-02-15T19:16:43.600Z,23.83
2019-02-15T19:19:41.010Z,24.77
2019-02-15T19:22:18.677Z,24.07
2019-02-15T19:24:56.347Z,22.77
2019-02-15T19:27:37.627Z,19.93
2019-02-15T19:30:19.110Z,20.07
2019-02-15T19:32:56.777Z,18.20
2019-02-15T19:35:34.384Z,17.23
2019-02-15T19:38:20.021Z,17.53
2019-02-15T19:40:57.602Z,15.97
2019-02-15T19:43:35.238Z,17.50
2019-02-15T19:46:12.977Z,17.70
2019-02-15T19:48:57.123Z,14.47
2019-02-15T19:51:35.955Z,14.70
2019-02-15T19:54:13.692Z,13.73
2019-02-15T19:56:51.254Z,15.20
2019-02-15T19:59:39.150Z,15.90
2019-02-15T20:02:16.852Z,16.33
2019-02-15T20:04:54.410Z,17.33
2019-02-15T20:07:42.727Z,14.37
2019-02-15T20:10:22.241Z,16.97
2019-02-15T20:13:00.846Z,15.73
2019-02-15T20:15:37.504Z,15.40
2019-02-15T20:18:15.251Z,16.97
2019-02-15T20:20:52.798Z,17.10
2019-02-15T20:23:30.404Z,14.83
2019-02-15T20:26:08.004Z,14.47
2019-02-15T20:28:46.656Z,16.80
2019-02-15T20:31:24.258Z,16.97
2019-02-15T20:34:01.949Z,16.27
2019-02-15T20:36:39.475Z,14.03
2019-02-15T20:39:17.502Z,13.87
2019-02-15T20:41:55.062Z,17.10
2019-02-15T20:44:32.803Z,11.93
2019-02-15T20:47:10.430Z,15.10
2019-02-15T20:49:48.031Z,16.00
2019-02-15T20:52:25.625Z,11.77
2019-02-15T20:55:03.221Z,14.33
2019-02-15T20:57:40.907Z,14.07
2019-02-15T21:00:22.383Z,13.20
2019-02-15T21:02:59.916Z,15.10
2019-02-15T21:05:37.433Z,14.53
2019-02-15T21:08:23.330Z,15.67
2019-02-15T21:11:00.860Z,15.50
2019-02-15T21:13:38.391Z,14.83
2019-02-15T21:16:15.892Z,12.47
2019-02-15T21:19:15.844Z,13.50
2019-02-15T21:21:53.479Z,13.10
2019-02-15T21:24:31.079Z,10.77
2019-02-15T21:27:08.686Z,13.00
2019-02-15T21:29:46.633Z,12.47
2019-02-15T21:32:24.135Z,13.37
2019-02-15T21:35:01.683Z,9.67
2019-02-15T21:37:40.269Z,13.33
2019-02-15T21:40:18.440Z,12.57
2019-02-15T21:42:55.983Z,10.50
2019-02-15T21:45:33.496Z,14.63
2019-02-15T21:48:14.585Z,10.77
2019-02-15T21:50:52.096Z,14.70
2019-02-15T21:53:29.608Z,13.37
2019-02-15T21:56:07.126Z,15.20
2019-02-15T21:58:44.744Z,19.30
2019-02-15T22:01:22.275Z,22.30
2019-02-15T22:03:59.808Z,14.67
2019-02-15T22:06:37.344Z,16.80
2019-02-15T22:09:14.866Z,15.37
2019-02-15T22:11:52.361Z,15.97
2019-02-15T22:14:29.902Z,13.63
2019-02-15T22:17:26.114Z,13.97
2019-02-15T22:20:03.661Z,13.63
2019-02-15T22:22:41.163Z,14.23
2019-02-15T22:25:18.673Z,15.70
2019-02-15T22:27:56.326Z,13.23
2019-02-15T22:30:33.840Z,15.53
2019-02-15T22:33:11.341Z,13.63
2019-02-15T22:35:48.854Z,13.60
2019-02-15T22:38:33.550Z,14.13
2019-02-15T22:41:16.280Z,13.40
2019-02-15T22:43:53.792Z,15.33
2019-02-15T22:46:31.289Z,17.93
2019-02-15T22:49:08.853Z,14.87
2019-02-15T22:51:46.363Z,13.43
2019-02-15T22:54:23.907Z,14.00
2019-02-15T22:57:11.099Z,13.97
2019-02-15T22:59:48.623Z,16.57
2019-02-15T23:02:26.109Z,15.57
2019-02-15T23:05:03.647Z,12.47
2019-02-15T23:07:41.286Z,11.90
2019-02-15T23:10:18.825Z,11.73
2019-02-15T23:12:56.333Z,13.77
2019-02-15T23:15:33.886Z,12.27
2019-02-15T23:18:14.630Z,10.93
2019-02-15T23:20:52.152Z,13.33
2019-02-15T23:23:29.652Z,13.47
2019-02-15T23:26:07.180Z,15.30
2019-02-15T23:28:44.810Z,12.77
2019-02-15T23:31:22.331Z,12.37
2019-02-15T23:33:59.920Z,12.97
2019-02-15T23:36:43.520Z,12.83
2019-02-15T23:39:21.067Z,14.27
2019-02-15T23:41:58.598Z,14.17
2019-02-15T23:44:36.137Z,13.63
2019-02-15T23:47:20.456Z,14.30
2019-02-15T23:49:58.008Z,12.17
2019-02-15T23:52:35.501Z,16.37
2019-02-15T23:55:13.052Z,13.23
2019-02-15T23:58:04.043Z,14.57
